createdAt,value
2022-11-23T00:00:04.444Z,672.71
2022-11-23T00:00:14.462Z,672.66
2022-11-23T00:00:24.464Z,672.64
2022-11-23T00:00:34.471Z,672.65
2022-11-23T00:00:44.464Z,672.73
2022-11-23T00:00:54.465Z,672.66
2022-11-23T00:01:04.466Z,672.61
2022-11-23T00:01:14.468Z,672.57
2022-11-23T00:01:24.469Z,672.56
2022-11-23T00:01:34.471Z,672.56
2022-11-23T00:01:44.572Z,672.43
2022-11-23T00:01:54.489Z,672.49
2022-11-23T00:02:04.558Z,672.46
2022-11-23T00:02:14.485Z,672.45
2022-11-23T00:02:24.520Z,672.49
2022-11-23T00:02:34.501Z,672.61
2022-11-23T00:02:44.472Z,672.55
2022-11-23T00:02:54.474Z,672.49
2022-11-23T00:03:04.471Z,672.52
2022-11-23T00:03:14.473Z,672.51
2022-11-23T00:03:24.474Z,672.51
2022-11-23T00:03:34.477Z,672.64
2022-11-23T00:03:44.475Z,672.61
2022-11-23T00:03:54.476Z,672.65
2022-11-23T00:04:04.474Z,672.70
2022-11-23T00:04:14.476Z,672.65
2022-11-23T00:04:24.477Z,672.67
2022-11-23T00:04:34.477Z,672.69
2022-11-23T00:04:44.479Z,672.63
2022-11-23T00:04:54.483Z,672.57
2022-11-23T00:05:04.481Z,672.68
2022-11-23T00:05:14.482Z,672.70
2022-11-23T00:05:24.492Z,672.59
2022-11-23T00:05:34.484Z,672.56
2022-11-23T00:05:44.486Z,672.53
2022-11-23T00:05:54.488Z,672.54
2022-11-23T00:06:04.486Z,672.50
2022-11-23T00:06:14.492Z,672.41
2022-11-23T00:06:24.486Z,672.34
2022-11-23T00:06:34.503Z,672.21
2022-11-23T00:06:44.489Z,672.25
2022-11-23T00:06:54.495Z,672.16
2022-11-23T00:07:04.579Z,672.11
2022-11-23T00:07:14.554Z,672.02
2022-11-23T00:07:24.522Z,671.95
2022-11-23T00:07:34.567Z,671.97
2022-11-23T00:07:44.519Z,671.98
2022-11-23T00:07:54.504Z,672.04
2022-11-23T00:08:04.495Z,672.12
2022-11-23T00:08:14.498Z,672.20
2022-11-23T00:08:24.495Z,672.25
2022-11-23T00:08:34.498Z,672.25
2022-11-23T00:08:44.497Z,672.17
2022-11-23T00:08:54.499Z,672.14
2022-11-23T00:09:04.499Z,672.13
2022-11-23T00:09:14.500Z,672.10
2022-11-23T00:09:24.500Z,672.16
2022-11-23T00:09:34.548Z,672.20
2022-11-23T00:09:44.502Z,672.22
2022-11-23T00:09:54.502Z,672.18
2022-11-23T00:10:04.506Z,672.17
2022-11-23T00:10:14.505Z,672.21
2022-11-23T00:10:24.491Z,672.25
2022-11-23T00:10:34.509Z,672.25
2022-11-23T00:10:44.509Z,672.27
2022-11-23T00:10:54.512Z,672.26
2022-11-23T00:11:04.511Z,672.20
2022-11-23T00:11:14.518Z,672.17
2022-11-23T00:11:24.513Z,672.20
2022-11-23T00:11:34.514Z,672.20
2022-11-23T00:11:44.514Z,672.17
2022-11-23T00:11:54.515Z,672.26
2022-11-23T00:12:04.514Z,672.31
2022-11-23T00:12:14.518Z,672.40
2022-11-23T00:12:24.519Z,672.42
2022-11-23T00:12:34.518Z,672.37
2022-11-23T00:12:44.519Z,672.46
2022-11-23T00:12:54.519Z,672.45
2022-11-23T00:13:04.519Z,672.48
2022-11-23T00:13:14.523Z,672.54
2022-11-23T00:13:24.519Z,672.50
2022-11-23T00:13:34.522Z,672.38
2022-11-23T00:13:44.621Z,672.38
2022-11-23T00:13:54.525Z,672.39
2022-11-23T00:14:04.523Z,672.38
2022-11-23T00:14:14.527Z,672.47
2022-11-23T00:14:24.527Z,672.55
2022-11-23T00:14:34.526Z,672.71
2022-11-23T00:14:44.527Z,672.72
2022-11-23T00:14:54.526Z,672.73
2022-11-23T00:15:04.528Z,672.67
2022-11-23T00:15:14.531Z,672.64
2022-11-23T00:15:24.531Z,672.62
2022-11-23T00:15:34.534Z,672.65
2022-11-23T00:15:44.532Z,672.71
2022-11-23T00:15:54.530Z,672.70
2022-11-23T00:16:04.532Z,672.76
2022-11-23T00:16:14.536Z,672.80
2022-11-23T00:16:24.535Z,672.79
2022-11-23T00:16:34.534Z,672.84
2022-11-23T00:16:44.535Z,672.81
2022-11-23T00:16:54.538Z,672.77
2022-11-23T00:17:04.537Z,672.84
2022-11-23T00:17:14.547Z,672.99
2022-11-23T00:17:24.545Z,673.13
2022-11-23T00:17:34.541Z,673.11
2022-11-23T00:17:44.542Z,673.13
2022-11-23T00:17:54.544Z,673.20
2022-11-23T00:18:04.551Z,673.22
2022-11-23T00:18:14.548Z,673.32
2022-11-23T00:18:24.544Z,673.42
2022-11-23T00:18:34.546Z,673.41
2022-11-23T00:18:44.549Z,673.46
2022-11-23T00:18:54.530Z,673.41
2022-11-23T00:19:04.552Z,673.33
2022-11-23T00:19:14.549Z,673.22
2022-11-23T00:19:24.548Z,673.17
2022-11-23T00:19:34.694Z,673.20
2022-11-23T00:19:44.553Z,673.22
2022-11-23T00:19:54.550Z,673.21
2022-11-23T00:20:04.551Z,673.27
2022-11-23T00:20:14.556Z,673.29
2022-11-23T00:20:24.554Z,673.19
2022-11-23T00:20:34.553Z,673.06
2022-11-23T00:20:44.557Z,673.13
2022-11-23T00:20:54.554Z,673.06
2022-11-23T00:21:04.555Z,673.16
2022-11-23T00:21:14.558Z,673.16
2022-11-23T00:21:24.558Z,673.10
2022-11-23T00:21:34.558Z,673.04
2022-11-23T00:21:44.558Z,672.97
2022-11-23T00:21:54.559Z,672.92
2022-11-23T00:22:04.560Z,673.01
2022-11-23T00:22:14.563Z,673.02
2022-11-23T00:22:24.562Z,673.09
2022-11-23T00:22:34.593Z,673.01
2022-11-23T00:22:44.564Z,672.99
2022-11-23T00:22:54.566Z,672.98
2022-11-23T00:23:04.575Z,673.01
2022-11-23T00:23:14.569Z,672.90
2022-11-23T00:23:24.567Z,672.90
2022-11-23T00:23:34.569Z,672.96
2022-11-23T00:23:44.568Z,673.03
2022-11-23T00:23:54.569Z,673.09
2022-11-23T00:24:04.571Z,673.14
2022-11-23T00:24:14.574Z,673.21
2022-11-23T00:24:24.574Z,673.28
2022-11-23T00:24:34.631Z,673.29
2022-11-23T00:24:44.623Z,673.28
2022-11-23T00:24:54.606Z,673.24
2022-11-23T00:25:04.655Z,673.31
2022-11-23T00:25:14.598Z,673.21
2022-11-23T00:25:24.581Z,673.27
2022-11-23T00:25:34.580Z,673.30
2022-11-23T00:25:44.582Z,673.33
2022-11-23T00:25:54.581Z,673.36
2022-11-23T00:26:04.582Z,673.28
2022-11-23T00:26:14.590Z,673.26
2022-11-23T00:26:24.568Z,673.33
2022-11-23T00:26:34.584Z,673.33
2022-11-23T00:26:44.585Z,673.49
2022-11-23T00:26:54.584Z,673.56
2022-11-23T00:27:04.584Z,673.54
2022-11-23T00:27:14.593Z,673.55
2022-11-23T00:27:24.587Z,673.57
2022-11-23T00:27:34.589Z,673.62
2022-11-23T00:27:44.586Z,673.63
2022-11-23T00:27:54.588Z,673.79
2022-11-23T00:28:04.590Z,673.81
2022-11-23T00:28:14.591Z,673.86
2022-11-23T00:28:24.593Z,673.91
2022-11-23T00:28:34.594Z,674.01
2022-11-23T00:28:44.593Z,674.02
2022-11-23T00:28:54.594Z,674.10
2022-11-23T00:29:04.596Z,674.09
2022-11-23T00:29:14.597Z,674.12
2022-11-23T00:29:24.596Z,674.14
2022-11-23T00:29:34.604Z,674.17
2022-11-23T00:29:44.600Z,674.22
2022-11-23T00:29:54.603Z,674.24
2022-11-23T00:30:04.599Z,674.14
2022-11-23T00:30:14.602Z,674.16
2022-11-23T00:30:24.601Z,674.08
2022-11-23T00:30:34.619Z,674.07
2022-11-23T00:30:44.603Z,674.15
2022-11-23T00:30:54.602Z,674.10
2022-11-23T00:31:04.603Z,674.07
2022-11-23T00:31:14.609Z,674.06
2022-11-23T00:31:24.588Z,674.07
2022-11-23T00:31:34.607Z,674.15
2022-11-23T00:31:44.607Z,674.09
2022-11-23T00:31:54.595Z,674.14
2022-11-23T00:32:04.609Z,674.02
2022-11-23T00:32:14.612Z,674.04
2022-11-23T00:32:24.610Z,674.06
2022-11-23T00:32:34.612Z,674.04
2022-11-23T00:32:44.630Z,674.16
2022-11-23T00:32:54.614Z,674.09
2022-11-23T00:33:04.617Z,674.12
2022-11-23T00:33:14.619Z,674.10
2022-11-23T00:33:24.619Z,674.15
2022-11-23T00:33:34.640Z,674.15
2022-11-23T00:33:44.609Z,674.16
2022-11-23T00:33:54.620Z,674.24
2022-11-23T00:34:04.620Z,674.29
2022-11-23T00:34:14.623Z,674.29
2022-11-23T00:34:24.623Z,674.27
2022-11-23T00:34:34.622Z,674.20
2022-11-23T00:34:44.625Z,674.26
2022-11-23T00:34:54.625Z,674.27
2022-11-23T00:35:04.628Z,674.25
2022-11-23T00:35:14.627Z,674.29
2022-11-23T00:35:24.626Z,674.33
2022-11-23T00:35:34.627Z,674.26
2022-11-23T00:35:44.630Z,674.31
2022-11-23T00:35:54.631Z,674.17
2022-11-23T00:36:04.627Z,674.14
2022-11-23T00:36:14.680Z,674.14
2022-11-23T00:36:24.637Z,674.13
2022-11-23T00:36:34.630Z,674.09
2022-11-23T00:36:44.631Z,673.99
2022-11-23T00:36:54.634Z,673.96
2022-11-23T00:37:04.634Z,673.91
2022-11-23T00:37:14.635Z,673.78
2022-11-23T00:37:24.636Z,673.71
2022-11-23T00:37:34.638Z,673.79
2022-11-23T00:37:44.638Z,673.72
2022-11-23T00:37:54.639Z,673.76
2022-11-23T00:38:04.639Z,673.81
2022-11-23T00:38:14.640Z,673.76
2022-11-23T00:38:24.642Z,673.78
2022-11-23T00:38:34.644Z,673.82
2022-11-23T00:38:44.658Z,673.87
2022-11-23T00:38:54.649Z,673.89
2022-11-23T00:39:04.645Z,673.86
2022-11-23T00:39:14.647Z,673.94
2022-11-23T00:39:24.648Z,673.88
2022-11-23T00:39:34.647Z,673.86
2022-11-23T00:39:44.648Z,673.77
2022-11-23T00:39:54.651Z,673.76
2022-11-23T00:40:04.650Z,673.79
2022-11-23T00:40:14.651Z,673.86
2022-11-23T00:40:24.651Z,673.79
2022-11-23T00:40:34.653Z,673.83
2022-11-23T00:40:44.657Z,673.81
2022-11-23T00:40:54.653Z,673.81
2022-11-23T00:41:04.656Z,673.85
2022-11-23T00:41:14.657Z,673.78
2022-11-23T00:41:24.643Z,673.78
2022-11-23T00:41:34.660Z,673.79
2022-11-23T00:41:44.660Z,673.75
2022-11-23T00:41:54.661Z,673.73
2022-11-23T00:42:04.663Z,673.62
2022-11-23T00:42:14.663Z,673.65
2022-11-23T00:42:24.666Z,673.63
2022-11-23T00:42:37.966Z,673.63
2022-11-23T00:42:44.668Z,673.67
2022-11-23T00:42:54.667Z,673.70
2022-11-23T00:43:04.667Z,673.65
2022-11-23T00:43:14.670Z,673.68
2022-11-23T00:43:24.672Z,673.70
2022-11-23T00:43:34.673Z,673.71
2022-11-23T00:43:44.672Z,673.74
2022-11-23T00:43:54.679Z,673.75
2022-11-23T00:44:04.674Z,673.69
2022-11-23T00:44:14.676Z,673.67
2022-11-23T00:44:24.674Z,673.66
2022-11-23T00:44:34.676Z,673.65
2022-11-23T00:44:44.677Z,673.67
2022-11-23T00:44:54.680Z,673.66
2022-11-23T00:45:04.687Z,673.67
2022-11-23T00:45:14.680Z,673.67
2022-11-23T00:45:24.683Z,673.72
2022-11-23T00:45:34.684Z,673.66
2022-11-23T00:45:44.683Z,673.64
2022-11-23T00:45:54.682Z,673.62
2022-11-23T00:46:04.683Z,673.65
2022-11-23T00:46:14.681Z,673.68
2022-11-23T00:46:24.702Z,673.67
2022-11-23T00:46:34.689Z,673.63
2022-11-23T00:46:44.686Z,673.57
2022-11-23T00:46:54.692Z,673.58
2022-11-23T00:47:04.692Z,673.60
2022-11-23T00:47:14.694Z,673.59
2022-11-23T00:47:24.695Z,673.50
2022-11-23T00:47:34.695Z,673.48
2022-11-23T00:47:44.696Z,673.47
2022-11-23T00:47:54.697Z,673.49
2022-11-23T00:48:04.694Z,673.46
2022-11-23T00:48:14.700Z,673.37
2022-11-23T00:48:24.697Z,673.27
2022-11-23T00:48:34.695Z,673.25
2022-11-23T00:48:44.697Z,673.26
2022-11-23T00:48:54.708Z,673.18
2022-11-23T00:49:04.698Z,673.08
2022-11-23T00:49:14.700Z,673.07
2022-11-23T00:49:24.701Z,672.89
2022-11-23T00:49:34.702Z,672.88
2022-11-23T00:49:44.703Z,672.79
2022-11-23T00:49:54.705Z,672.75
2022-11-23T00:50:04.705Z,672.70
2022-11-23T00:50:14.706Z,672.60
2022-11-23T00:50:24.710Z,672.63
2022-11-23T00:50:34.712Z,672.69
2022-11-23T00:50:44.707Z,672.69
2022-11-23T00:50:54.710Z,672.67
2022-11-23T00:51:04.709Z,672.62
2022-11-23T00:51:14.714Z,672.55
2022-11-23T00:51:24.716Z,672.59
2022-11-23T00:51:34.713Z,672.51
2022-11-23T00:51:44.717Z,672.53
2022-11-23T00:51:54.715Z,672.60
2022-11-23T00:52:04.715Z,672.57
2022-11-23T00:52:14.715Z,672.61
2022-11-23T00:52:24.717Z,672.54
2022-11-23T00:52:34.718Z,672.45
2022-11-23T00:52:44.718Z,672.44
2022-11-23T00:52:54.721Z,672.37
2022-11-23T00:53:04.719Z,672.35
2022-11-23T00:53:14.721Z,672.39
2022-11-23T00:53:24.723Z,672.30
2022-11-23T00:53:34.727Z,672.23
2022-11-23T00:53:44.725Z,672.25
2022-11-23T00:53:54.726Z,672.28
2022-11-23T00:54:04.725Z,672.23
2022-11-23T00:54:14.725Z,672.27
2022-11-23T00:54:24.727Z,672.36
2022-11-23T00:54:34.726Z,672.34
2022-11-23T00:54:44.727Z,672.40
2022-11-23T00:54:54.729Z,672.45
2022-11-23T00:55:04.730Z,672.60
2022-11-23T00:55:14.730Z,672.55
2022-11-23T00:55:24.743Z,672.58
2022-11-23T00:55:34.733Z,672.56
2022-11-23T00:55:44.735Z,672.55
2022-11-23T00:55:54.734Z,672.43
2022-11-23T00:56:04.738Z,672.62
2022-11-23T00:56:14.737Z,672.77
2022-11-23T00:56:24.739Z,672.87
2022-11-23T00:56:34.744Z,672.78
2022-11-23T00:56:44.738Z,672.69
2022-11-23T00:56:54.739Z,672.74
2022-11-23T00:57:04.737Z,672.60
2022-11-23T00:57:14.740Z,672.74
2022-11-23T00:57:24.740Z,672.80
2022-11-23T00:57:34.745Z,672.68
2022-11-23T00:57:44.741Z,672.73
2022-11-23T00:57:54.744Z,673.00
2022-11-23T00:58:04.744Z,672.89
2022-11-23T00:58:14.745Z,672.91
2022-11-23T00:58:24.748Z,672.85
2022-11-23T00:58:34.749Z,672.84
2022-11-23T00:58:44.744Z,672.95
2022-11-23T00:58:54.746Z,672.95
2022-11-23T00:59:04.747Z,672.92
2022-11-23T00:59:14.749Z,672.67
2022-11-23T00:59:24.752Z,672.79
2022-11-23T00:59:34.885Z,672.59
2022-11-23T00:59:44.751Z,672.55
2022-11-23T00:59:54.751Z,672.78
2022-11-23T01:00:04.752Z,672.65
2022-11-23T01:00:14.752Z,672.84
2022-11-23T01:00:24.753Z,672.90
2022-11-23T01:00:34.758Z,672.88
2022-11-23T01:00:44.755Z,673.08
2022-11-23T01:00:54.757Z,672.89
2022-11-23T01:01:04.858Z,672.98
2022-11-23T01:01:14.835Z,673.09
2022-11-23T01:01:24.831Z,673.00
2022-11-23T01:01:34.863Z,673.04
2022-11-23T01:01:45.012Z,672.96
2022-11-23T01:01:54.805Z,673.13
2022-11-23T01:02:04.808Z,673.01
2022-11-23T01:02:14.762Z,673.04
2022-11-23T01:02:24.764Z,672.99
2022-11-23T01:02:34.767Z,673.04
2022-11-23T01:02:44.786Z,673.14
2022-11-23T01:02:54.771Z,673.10
2022-11-23T01:03:04.767Z,673.02
2022-11-23T01:03:14.769Z,673.16
2022-11-23T01:03:24.772Z,673.16
2022-11-23T01:03:34.771Z,673.21
2022-11-23T01:03:44.772Z,673.13
2022-11-23T01:03:54.775Z,672.93
2022-11-23T01:04:04.775Z,673.47
2022-11-23T01:04:14.776Z,673.31
2022-11-23T01:04:24.778Z,673.27
2022-11-23T01:04:34.775Z,673.36
2022-11-23T01:04:44.775Z,673.25
2022-11-23T01:04:54.779Z,673.27
2022-11-23T01:05:04.776Z,673.28
2022-11-23T01:05:14.780Z,673.22
2022-11-23T01:05:24.778Z,673.25
2022-11-23T01:05:34.779Z,673.44
2022-11-23T01:05:44.780Z,673.50
2022-11-23T01:05:54.783Z,673.53
2022-11-23T01:06:04.783Z,673.70
2022-11-23T01:06:14.787Z,673.58
2022-11-23T01:06:24.790Z,673.56
2022-11-23T01:06:34.788Z,673.73
2022-11-23T01:06:44.788Z,673.63
2022-11-23T01:06:54.788Z,673.62
2022-11-23T01:07:04.826Z,673.68
2022-11-23T01:07:14.855Z,673.62
2022-11-23T01:07:24.830Z,673.49
2022-11-23T01:07:34.804Z,673.42
2022-11-23T01:07:44.819Z,673.45
2022-11-23T01:07:54.799Z,673.56
2022-11-23T01:08:04.802Z,673.52
2022-11-23T01:08:14.808Z,673.72
2022-11-23T01:08:24.797Z,673.69
2022-11-23T01:08:34.797Z,673.81
2022-11-23T01:08:44.801Z,673.81
2022-11-23T01:08:54.805Z,673.75
2022-11-23T01:09:04.799Z,673.62
2022-11-23T01:09:14.803Z,673.57
2022-11-23T01:09:24.804Z,673.50
2022-11-23T01:09:34.801Z,673.36
2022-11-23T01:09:44.802Z,673.41
2022-11-23T01:09:54.806Z,673.38
2022-11-23T01:10:04.804Z,673.36
2022-11-23T01:10:14.807Z,673.43
2022-11-23T01:10:24.810Z,673.48
2022-11-23T01:10:34.807Z,673.41
2022-11-23T01:10:44.813Z,673.39
2022-11-23T01:10:54.814Z,673.47
2022-11-23T01:11:04.811Z,673.40
2022-11-23T01:11:14.815Z,673.50
2022-11-23T01:11:24.820Z,673.56
2022-11-23T01:11:34.839Z,673.56
2022-11-23T01:11:44.814Z,673.51
2022-11-23T01:11:54.834Z,673.58
2022-11-23T01:12:04.815Z,673.58
2022-11-23T01:12:14.814Z,673.48
2022-11-23T01:12:24.816Z,673.52
2022-11-23T01:12:34.822Z,673.34
2022-11-23T01:12:44.817Z,673.42
2022-11-23T01:12:54.819Z,673.51
2022-11-23T01:13:04.819Z,673.46
2022-11-23T01:13:14.823Z,673.41
2022-11-23T01:13:24.819Z,673.49
2022-11-23T01:13:34.826Z,673.53
2022-11-23T01:13:44.820Z,673.53
2022-11-23T01:13:54.822Z,673.41
2022-11-23T01:14:04.826Z,673.41
2022-11-23T01:14:14.827Z,673.35
2022-11-23T01:14:24.826Z,673.38
2022-11-23T01:14:34.826Z,673.28
2022-11-23T01:14:44.828Z,673.29
2022-11-23T01:14:54.829Z,673.26
2022-11-23T01:15:04.831Z,673.20
2022-11-23T01:15:14.831Z,673.23
2022-11-23T01:15:24.835Z,673.31
2022-11-23T01:15:34.833Z,673.28
2022-11-23T01:15:44.834Z,673.18
2022-11-23T01:15:54.836Z,673.18
2022-11-23T01:16:04.840Z,673.22
2022-11-23T01:16:18.225Z,673.30
2022-11-23T01:16:25.842Z,673.35
2022-11-23T01:16:34.838Z,673.30
2022-11-23T01:16:44.841Z,673.18
2022-11-23T01:16:54.842Z,673.28
2022-11-23T01:17:04.850Z,673.42
2022-11-23T01:17:14.841Z,673.44
2022-11-23T01:17:24.842Z,673.29
2022-11-23T01:17:34.849Z,673.25
2022-11-23T01:17:44.845Z,673.32
2022-11-23T01:17:54.847Z,673.20
2022-11-23T01:18:04.857Z,673.07
2022-11-23T01:18:14.848Z,673.14
2022-11-23T01:18:24.851Z,673.25
2022-11-23T01:18:34.850Z,673.15
2022-11-23T01:18:44.851Z,673.22
2022-11-23T01:18:54.852Z,673.15
2022-11-23T01:19:04.857Z,673.17
2022-11-23T01:19:14.859Z,673.15
2022-11-23T01:19:24.853Z,673.13
2022-11-23T01:19:34.856Z,673.21
2022-11-23T01:19:44.858Z,673.23
2022-11-23T01:19:54.854Z,673.05
2022-11-23T01:20:04.890Z,673.14
2022-11-23T01:20:14.857Z,673.28
2022-11-23T01:20:24.858Z,673.22
2022-11-23T01:20:34.869Z,673.16
2022-11-23T01:20:44.859Z,673.10
2022-11-23T01:20:54.859Z,673.10
2022-11-23T01:21:04.860Z,673.14
2022-11-23T01:21:14.859Z,673.19
2022-11-23T01:21:24.863Z,673.24
2022-11-23T01:21:34.871Z,673.22
2022-11-23T01:21:44.863Z,673.21
2022-11-23T01:21:54.864Z,673.25
2022-11-23T01:22:04.865Z,673.28
2022-11-23T01:22:14.867Z,673.29
2022-11-23T01:22:24.868Z,673.03
2022-11-23T01:22:34.866Z,673.47
2022-11-23T01:22:44.869Z,673.45
2022-11-23T01:22:54.873Z,673.28
2022-11-23T01:23:04.872Z,673.22
2022-11-23T01:23:14.872Z,673.25
2022-11-23T01:23:24.872Z,672.95
2022-11-23T01:23:34.871Z,673.18
2022-11-23T01:23:44.873Z,673.19
2022-11-23T01:23:54.876Z,673.25
2022-11-23T01:24:04.876Z,673.22
2022-11-23T01:24:14.880Z,673.21
2022-11-23T01:24:24.879Z,673.03
2022-11-23T01:24:34.880Z,673.14
2022-11-23T01:24:44.862Z,673.25
2022-11-23T01:24:54.881Z,673.23
2022-11-23T01:25:04.882Z,673.18
2022-11-23T01:25:14.880Z,673.12
2022-11-23T01:25:24.886Z,673.02
2022-11-23T01:25:34.881Z,673.06
2022-11-23T01:25:44.882Z,673.02
2022-11-23T01:25:57.193Z,673.13
2022-11-23T01:26:04.883Z,673.09
2022-11-23T01:26:14.887Z,673.07
2022-11-23T01:26:24.889Z,673.10
2022-11-23T01:26:34.886Z,673.12
2022-11-23T01:26:44.887Z,673.05
2022-11-23T01:26:54.889Z,673.49
2022-11-23T01:27:04.889Z,673.36
2022-11-23T01:27:14.890Z,673.19
2022-11-23T01:27:24.891Z,673.41
2022-11-23T01:27:34.891Z,673.30
2022-11-23T01:27:44.893Z,673.46
2022-11-23T01:27:54.893Z,673.50
2022-11-23T01:28:04.894Z,673.50
2022-11-23T01:28:14.896Z,673.55
2022-11-23T01:28:24.900Z,673.64
2022-11-23T01:28:34.898Z,673.52
2022-11-23T01:28:44.899Z,673.55
2022-11-23T01:28:54.902Z,673.55
2022-11-23T01:29:04.903Z,673.51
2022-11-23T01:29:14.904Z,673.60
2022-11-23T01:29:24.901Z,673.57
2022-11-23T01:29:35.124Z,673.51
2022-11-23T01:29:44.905Z,673.72
2022-11-23T01:29:54.911Z,673.74
2022-11-23T01:30:04.907Z,673.65
2022-11-23T01:30:14.903Z,673.73
2022-11-23T01:30:24.908Z,673.62
2022-11-23T01:30:34.910Z,673.69
2022-11-23T01:30:44.908Z,673.72
2022-11-23T01:30:54.910Z,673.64
2022-11-23T01:31:04.911Z,673.71
2022-11-23T01:31:14.910Z,673.67
2022-11-23T01:31:24.914Z,673.56
2022-11-23T01:31:34.912Z,673.56
2022-11-23T01:31:47.022Z,673.68
2022-11-23T01:31:54.916Z,673.70
2022-11-23T01:32:04.915Z,673.64
2022-11-23T01:32:14.918Z,673.62
2022-11-23T01:32:24.916Z,673.73
2022-11-23T01:32:34.919Z,673.58
2022-11-23T01:32:44.921Z,673.74
2022-11-23T01:32:54.921Z,673.74
2022-11-23T01:33:04.919Z,673.58
2022-11-23T01:33:14.921Z,673.64
2022-11-23T01:33:24.922Z,673.54
2022-11-23T01:33:34.923Z,673.45
2022-11-23T01:33:44.924Z,673.45
2022-11-23T01:33:54.925Z,673.59
2022-11-23T01:34:04.928Z,673.66
2022-11-23T01:34:14.929Z,673.41
2022-11-23T01:34:24.925Z,673.65
2022-11-23T01:34:34.930Z,673.62
2022-11-23T01:34:44.928Z,673.83
2022-11-23T01:34:54.930Z,673.82
2022-11-23T01:35:04.930Z,673.70
2022-11-23T01:35:14.931Z,673.72
2022-11-23T01:35:24.930Z,673.68
2022-11-23T01:35:34.933Z,673.60
2022-11-23T01:35:44.932Z,673.64
2022-11-23T01:35:54.936Z,673.72
2022-11-23T01:36:04.937Z,673.52
2022-11-23T01:36:14.936Z,673.57
2022-11-23T01:36:25.478Z,673.66
2022-11-23T01:36:34.943Z,673.66
2022-11-23T01:36:44.944Z,673.60
2022-11-23T01:36:54.940Z,673.99
2022-11-23T01:37:04.940Z,673.90
2022-11-23T01:37:14.941Z,673.93
2022-11-23T01:37:24.943Z,673.75
2022-11-23T01:37:34.944Z,673.83
2022-11-23T01:37:44.942Z,673.81
2022-11-23T01:37:54.944Z,673.71
2022-11-23T01:38:04.945Z,673.91
2022-11-23T01:38:18.240Z,673.85
2022-11-23T01:38:24.945Z,673.86
2022-11-23T01:38:34.947Z,673.98
2022-11-23T01:38:44.950Z,673.82
2022-11-23T01:38:54.950Z,673.94
2022-11-23T01:39:04.950Z,673.79
2022-11-23T01:39:14.952Z,673.83
2022-11-23T01:39:24.952Z,673.85
2022-11-23T01:39:34.950Z,673.92
2022-11-23T01:39:44.952Z,673.89
2022-11-23T01:39:54.955Z,673.93
2022-11-23T01:40:04.960Z,674.00
2022-11-23T01:40:14.958Z,674.00
2022-11-23T01:40:24.956Z,673.94
2022-11-23T01:40:34.958Z,673.98
2022-11-23T01:40:44.965Z,674.05
2022-11-23T01:40:54.961Z,673.94
2022-11-23T01:41:04.962Z,673.94
2022-11-23T01:41:14.961Z,674.04
2022-11-23T01:41:24.961Z,674.04
2022-11-23T01:41:34.964Z,673.96
2022-11-23T01:41:44.974Z,673.99
2022-11-23T01:41:54.963Z,673.99
2022-11-23T01:42:04.983Z,674.04
2022-11-23T01:42:17.904Z,674.06
2022-11-23T01:42:24.968Z,674.10
2022-11-23T01:42:34.967Z,674.11
2022-11-23T01:42:44.967Z,674.07
2022-11-23T01:42:54.974Z,674.02
2022-11-23T01:43:04.972Z,673.90
2022-11-23T01:43:14.953Z,673.94
2022-11-23T01:43:24.972Z,674.03
2022-11-23T01:43:34.969Z,673.99
2022-11-23T01:43:44.970Z,673.96
2022-11-23T01:43:54.973Z,673.88
2022-11-23T01:44:04.973Z,673.84
2022-11-23T01:44:14.976Z,673.93
2022-11-23T01:44:24.976Z,673.91
2022-11-23T01:44:34.977Z,673.84
2022-11-23T01:44:44.976Z,673.66
2022-11-23T01:44:54.977Z,673.67
2022-11-23T01:45:04.979Z,673.89
2022-11-23T01:45:14.981Z,674.06
2022-11-23T01:45:24.982Z,673.95
2022-11-23T01:45:34.980Z,673.84
2022-11-23T01:45:44.982Z,673.66
2022-11-23T01:45:54.983Z,673.70
2022-11-23T01:46:04.983Z,673.79
2022-11-23T01:46:14.984Z,673.93
2022-11-23T01:46:24.984Z,673.88
2022-11-23T01:46:34.987Z,673.98
2022-11-23T01:46:44.985Z,674.02
2022-11-23T01:46:54.985Z,673.94
2022-11-23T01:47:04.971Z,673.92
2022-11-23T01:47:14.990Z,673.87
2022-11-23T01:47:24.992Z,673.86
2022-11-23T01:47:34.990Z,673.89
2022-11-23T01:47:44.999Z,674.05
2022-11-23T01:47:54.993Z,673.95
2022-11-23T01:48:04.995Z,673.93
2022-11-23T01:48:14.996Z,673.87
2022-11-23T01:48:24.996Z,673.82
2022-11-23T01:48:34.997Z,673.86
2022-11-23T01:48:45.003Z,673.80
2022-11-23T01:48:55.001Z,673.96
2022-11-23T01:49:04.998Z,673.96
2022-11-23T01:49:14.998Z,673.91
2022-11-23T01:49:25.002Z,674.01
2022-11-23T01:49:35.156Z,673.99
2022-11-23T01:49:44.996Z,673.89
2022-11-23T01:49:55.037Z,673.84
2022-11-23T01:50:05.005Z,673.77
2022-11-23T01:50:15.009Z,673.73
2022-11-23T01:50:25.008Z,673.94
2022-11-23T01:50:35.007Z,673.71
2022-11-23T01:50:45.007Z,673.71
2022-11-23T01:50:55.017Z,673.67
2022-11-23T01:51:05.012Z,673.69
2022-11-23T01:51:15.012Z,673.82
2022-11-23T01:51:25.017Z,673.82
2022-11-23T01:51:35.017Z,673.79
2022-11-23T01:51:45.016Z,673.76
2022-11-23T01:51:55.024Z,673.66
2022-11-23T01:52:05.019Z,673.56
2022-11-23T01:52:15.004Z,673.56
2022-11-23T01:52:25.021Z,673.56
2022-11-23T01:52:35.030Z,673.64
2022-11-23T01:52:45.022Z,673.61
2022-11-23T01:52:55.022Z,673.57
2022-11-23T01:53:05.024Z,673.55
2022-11-23T01:53:15.030Z,673.42
2022-11-23T01:53:25.026Z,673.44
2022-11-23T01:53:35.026Z,673.44
2022-11-23T01:53:45.027Z,673.36
2022-11-23T01:53:55.039Z,673.53
2022-11-23T01:54:05.026Z,673.39
2022-11-23T01:54:15.033Z,673.38
2022-11-23T01:54:25.029Z,673.48
2022-11-23T01:54:35.057Z,673.30
2022-11-23T01:54:45.032Z,673.39
2022-11-23T01:54:55.032Z,673.29
2022-11-23T01:55:08.427Z,673.40
2022-11-23T01:55:15.049Z,673.39
2022-11-23T01:55:25.037Z,673.37
2022-11-23T01:55:35.037Z,673.30
2022-11-23T01:55:45.038Z,673.31
2022-11-23T01:55:55.037Z,673.42
2022-11-23T01:56:05.036Z,673.24
2022-11-23T01:56:15.037Z,673.28
2022-11-23T01:56:25.038Z,673.40
2022-11-23T01:56:35.044Z,673.30
2022-11-23T01:56:45.049Z,673.35
2022-11-23T01:56:55.042Z,673.47
2022-11-23T01:57:05.044Z,673.27
2022-11-23T01:57:15.046Z,673.32
2022-11-23T01:57:25.043Z,673.32
2022-11-23T01:57:35.043Z,673.49
2022-11-23T01:57:45.045Z,673.39
2022-11-23T01:57:55.047Z,673.36
2022-11-23T01:58:05.050Z,673.39
2022-11-23T01:58:15.045Z,673.45
2022-11-23T01:58:25.051Z,673.34
2022-11-23T01:58:35.051Z,673.34
2022-11-23T01:58:45.049Z,673.34
2022-11-23T01:58:55.049Z,673.39
2022-11-23T01:59:05.051Z,673.42
2022-11-23T01:59:15.060Z,673.52
2022-11-23T01:59:25.055Z,673.38
2022-11-23T01:59:35.052Z,673.45
2022-11-23T01:59:45.053Z,673.29
2022-11-23T01:59:55.056Z,673.49
2022-11-23T02:00:05.059Z,673.56
2022-11-23T02:00:15.059Z,673.70
2022-11-23T02:00:25.064Z,673.55
2022-11-23T02:00:35.058Z,673.71
2022-11-23T02:00:45.098Z,673.76
2022-11-23T02:00:55.130Z,673.79
2022-11-23T02:01:05.080Z,673.62
2022-11-23T02:01:15.103Z,673.65
2022-11-23T02:01:25.094Z,673.63
2022-11-23T02:01:35.090Z,673.63
2022-11-23T02:01:45.067Z,673.68
2022-11-23T02:01:55.063Z,673.78
2022-11-23T02:02:05.074Z,673.67
2022-11-23T02:02:15.064Z,673.76
2022-11-23T02:02:25.071Z,673.83
2022-11-23T02:02:35.099Z,673.72
2022-11-23T02:02:45.067Z,673.64
2022-11-23T02:02:55.066Z,673.66
2022-11-23T02:03:05.072Z,673.73
2022-11-23T02:03:15.069Z,673.68
2022-11-23T02:03:25.070Z,673.57
2022-11-23T02:03:35.073Z,673.87
2022-11-23T02:03:45.072Z,673.91
2022-11-23T02:03:55.073Z,673.96
2022-11-23T02:04:05.076Z,674.04
2022-11-23T02:04:15.077Z,674.15
2022-11-23T02:04:25.076Z,673.93
2022-11-23T02:04:35.080Z,674.00
2022-11-23T02:04:45.079Z,674.06